Terminal Aerodrome Forecast
Issued by NWS

Home | Current Version | Previous Version | Text Only | Print | Product List | Glossary On
Versions: 1 2 3 4 5 6 7 8 9 10 11 12 13 14 15 16
000
FTUS44 KSJT 290500
TAFSOA
TAF
KSOA 290522Z 2906/3006 16006KT P6SM BKN250
     FM291000 17005KT P6SM SCT020 BKN250
     FM291500 18009KT P6SM SCT250
     FM292100 14007KT P6SM SCT060=

USA.gov is the U.S. government's official web portal to all federal, state and local government web resources and services.